Sidney, TX (76474)

5:18 PM CDT on August 04, 2015 (GMT -0500)
Comanche | | Change Station
CLOSE
Current Station
Airport
Location: Comanche,
Elevation: 1388 ft
Nearby Weather Stations

Elev 1388 ft 31.92 °N, 98.60 °W | Updated 3 minutes ago

Partly Cloudy
Partly Cloudy
97 °F
Feels Like 99 °F
N
6
Wind Variable Wind from SE

Today
High -- | Low -- °F
--% Chance of Precip.
Yesterday
High -- | Low -- °F
Precip. -- in
6:52 AM 8:29 PM
Waning Gibbous, 74% visible
Pressure 29.92 in
Visibility 10.0 miles
Clouds Clear
Heat Index 99 °F
Dew Point 63 °F
Humidity 32%
Rainfall 0.00 in
Snow Depth Not available.
UV 5 out of 12
Pollen 6.80 out of 12
Air Quality Not available.
Flu Activity Not available.
METAR KMKN 042215Z AUTO 13005KT 10SM CLR 36/17 A2992 RMK AO2 T03630171

More Conditions Fewer Conditions

Pressure 29.92 in
Visibility 10.0 miles
Clouds Clear
Heat Index 99 °F
Dew Point 63 °F
Humidity 32%
Rainfall 0.00 in
Snow Depth Not available.
UV 5 out of 12
Pollen 6.80 out of 12
Air Quality Not available.
Flu Activity Not available.
METAR KMKN 042215Z AUTO 13005KT 10SM CLR 36/17 A2992 RMK AO2 T03630171

More Conditions Fewer Conditions

Nowcast | as of 5:01 PM CDT on August 4, 2015

A few showers will be possible late this afternoon mainly along and southeast of a Cameron to Mexia to Palestine line. A rumble of thunder or two will also be possible. A few showers may be possible along the Red River as well. Precipitation should diminish after sunset. Rainfall amounts across all locations should remain light...less than a few hundreths of an inch. Otherwise...hot conditions will continue with temperatures in the mid to upper 90s. Skies will range from partly to mostly cloudy across much of north and central Texas.

×

10-Day Weather Forecast

×

Almanac

Astronomy

Aug. 04, 2015 Rise Set
Actual Time
Civil Twilight
Nautical Twilight
Astronomical Twilight
Moon
Length of Visible Light
Length of Day
Tomorrow will be .
, % of the Moon is Illuminated

Today's Extremes

State Highs State Lows

Community

WunderPhotos

Upload Photos

1,844,002 photos uploaded!

WunderBlogs® & News

Nearby

Air Quality

  Air Quality AQ Index Pollutant
Not available.

Snow Depth

Station Depth Elevation

Earthquake Activity

City Distance Mag. Time & Date
Minimum magnitude displayed is 2.5.

Coastal Water Temperatures

Place Temperature

Stations

Nearby Weather Stations

Station Location Temp. Windchill Dew Point Humidity Wind Precip. Elev Updated Type